sensor_id;sensor_type;location;lat;lon;timestamp;pressure;altitude;pressure_sealevel;temperature;humidity
77041;BME280;65974;42.664;23.264;2024-01-15T00:01:57;93800.63;;;-2.96;80.57
77041;BME280;65974;42.664;23.264;2024-01-15T00:04:23;93807.81;;;-3.02;80.42
77041;BME280;65974;42.664;23.264;2024-01-15T00:06:49;93805.38;;;-3.07;80.93
77041;BME280;65974;42.664;23.264;2024-01-15T00:09:16;93794.31;;;-3.04;80.84
77041;BME280;65974;42.664;23.264;2024-01-15T00:11:42;93788.19;;;-2.99;80.86
77041;BME280;65974;42.664;23.264;2024-01-15T00:14:08;93796.66;;;-3.11;81.61
77041;BME280;65974;42.664;23.264;2024-01-15T00:16:34;93787.13;;;-2.90;80.08
77041;BME280;65974;42.664;23.264;2024-01-15T00:19:00;93785.59;;;-2.91;79.88
77041;BME280;65974;42.664;23.264;2024-01-15T00:21:26;93792.34;;;-2.98;79.62
77041;BME280;65974;42.664;23.264;2024-01-15T00:23:52;93791.59;;;-3.16;81.11
77041;BME280;65974;42.664;23.264;2024-01-15T00:26:20;93791.13;;;-3.27;81.34
77041;BME280;65974;42.664;23.264;2024-01-15T00:28:46;93799.09;;;-3.32;81.67
77041;BME280;65974;42.664;23.264;2024-01-15T00:31:12;93793.09;;;-3.32;81.84
77041;BME280;65974;42.664;23.264;2024-01-15T00:33:40;93808.25;;;-3.26;81.82
77041;BME280;65974;42.664;23.264;2024-01-15T00:36:05;93797.84;;;-3.26;81.61
77041;BME280;65974;42.664;23.264;2024-01-15T00:38:31;93792.03;;;-3.23;81.38
77041;BME280;65974;42.664;23.264;2024-01-15T00:40:57;93799.25;;;-3.20;82.28
77041;BME280;65974;42.664;23.264;2024-01-15T00:43:22;93805.53;;;-3.21;81.31
77041;BME280;65974;42.664;23.264;2024-01-15T00:45:48;93802.59;;;-3.45;82.13
77041;BME280;65974;42.664;23.264;2024-01-15T00:48:13;93806.13;;;-3.49;82.19
77041;BME280;65974;42.664;23.264;2024-01-15T00:50:40;93798.91;;;-3.52;82.35
77041;BME280;65974;42.664;23.264;2024-01-15T00:53:05;93800.31;;;-3.46;81.91
77041;BME280;65974;42.664;23.264;2024-01-15T00:55:32;93793.59;;;-3.39;81.87
77041;BME280;65974;42.664;23.264;2024-01-15T00:57:59;93802.44;;;-3.40;82.57
77041;BME280;65974;42.664;23.264;2024-01-15T01:00:24;93798.63;;;-3.42;82.03
77041;BME280;65974;42.664;23.264;2024-01-15T01:02:50;93793.09;;;-3.41;82.44
77041;BME280;65974;42.664;23.264;2024-01-15T01:05:15;93791.91;;;-3.43;82.20
77041;BME280;65974;42.664;23.264;2024-01-15T01:07:42;93797.09;;;-3.60;82.58
77041;BME280;65974;42.664;23.264;2024-01-15T01:10:09;93790.78;;;-3.59;82.40
77041;BME280;65974;42.664;23.264;2024-01-15T01:12:34;93798.00;;;-3.56;82.54
77041;BME280;65974;42.664;23.264;2024-01-15T01:15:00;93800.75;;;-3.44;82.22
77041;BME280;65974;42.664;23.264;2024-01-15T01:17:25;93794.03;;;-3.62;82.71
77041;BME280;65974;42.664;23.264;2024-01-15T01:19:51;93787.16;;;-3.50;82.45
77041;BME280;65974;42.664;23.264;2024-01-15T01:22:16;93784.22;;;-3.48;82.17
77041;BME280;65974;42.664;23.264;2024-01-15T01:24:42;93786.38;;;-3.42;81.95
77041;BME280;65974;42.664;23.264;2024-01-15T01:27:07;93777.97;;;-3.39;81.45
77041;BME280;65974;42.664;23.264;2024-01-15T01:29:33;93769.38;;;-3.31;81.36
77041;BME280;65974;42.664;23.264;2024-01-15T01:31:58;93777.34;;;-3.27;81.04
77041;BME280;65974;42.664;23.264;2024-01-15T01:34:25;93771.53;;;-3.50;82.39
77041;BME280;65974;42.664;23.264;2024-01-15T01:36:52;93772.31;;;-3.49;81.87
77041;BME280;65974;42.664;23.264;2024-01-15T01:39:17;93760.66;;;-3.43;82.02
77041;BME280;65974;42.664;23.264;2024-01-15T01:41:43;93762.81;;;-3.45;82.61
77041;BME280;65974;42.664;23.264;2024-01-15T01:44:08;93763.72;;;-3.58;82.59
77041;BME280;65974;42.664;23.264;2024-01-15T01:46:36;93766.78;;;-3.39;82.11
77041;BME280;65974;42.664;23.264;2024-01-15T01:49:07;93758.06;;;-3.43;82.00
77041;BME280;65974;42.664;23.264;2024-01-15T01:51:36;93755.91;;;-3.58;82.47
77041;BME280;65974;42.664;23.264;2024-01-15T01:54:03;93758.34;;;-3.62;82.67
77041;BME280;65974;42.664;23.264;2024-01-15T01:56:30;93755.00;;;-3.62;82.74
77041;BME280;65974;42.664;23.264;2024-01-15T01:58:56;93752.69;;;-3.55;82.77
77041;BME280;65974;42.664;23.264;2024-01-15T02:03:52;93753.91;;;-3.53;82.96
77041;BME280;65974;42.664;23.264;2024-01-15T02:06:18;93755.59;;;-3.57;82.72
77041;BME280;65974;42.664;23.264;2024-01-15T02:08:44;93747.31;;;-3.67;82.89
77041;BME280;65974;42.664;23.264;2024-01-15T02:11:09;93751.47;;;-3.49;82.89
77041;BME280;65974;42.664;23.264;2024-01-15T02:13:35;93740.75;;;-3.56;82.34
77041;BME280;65974;42.664;23.264;2024-01-15T02:16:00;93725.28;;;-3.61;82.21
77041;BME280;65974;42.664;23.264;2024-01-15T02:18:26;93719.16;;;-3.40;81.95
77041;BME280;65974;42.664;23.264;2024-01-15T02:20:51;93725.91;;;-3.56;82.34
77041;BME280;65974;42.664;23.264;2024-01-15T02:23:17;93710.59;;;-3.40;81.96
77041;BME280;65974;42.664;23.264;2024-01-15T02:25:44;93684.09;;;-3.42;81.92
77041;BME280;65974;42.664;23.264;2024-01-15T02:28:12;93681.47;;;-3.17;80.69
77041;BME280;65974;42.664;23.264;2024-01-15T02:30:38;93686.94;;;-3.01;79.97
77041;BME280;65974;42.664;23.264;2024-01-15T02:33:07;93679.16;;;-3.18;80.26
77041;BME280;65974;42.664;23.264;2024-01-15T02:35:35;93687.31;;;-3.28;80.84
77041;BME280;65974;42.664;23.264;2024-01-15T02:38:04;93692.19;;;-3.18;80.85
77041;BME280;65974;42.664;23.264;2024-01-15T02:40:30;93690.63;;;-3.10;80.22
77041;BME280;65974;42.664;23.264;2024-01-15T02:42:56;93692.53;;;-3.28;80.69
77041;BME280;65974;42.664;23.264;2024-01-15T02:45:22;93685.47;;;-3.36;81.37
77041;BME280;65974;42.664;23.264;2024-01-15T02:47:47;93683.03;;;-3.41;81.33
77041;BME280;65974;42.664;23.264;2024-01-15T02:50:13;93694.81;;;-3.27;81.41
77041;BME280;65974;42.664;23.264;2024-01-15T02:52:39;93695.28;;;-3.42;81.64
77041;BME280;65974;42.664;23.264;2024-01-15T02:55:05;93690.53;;;-3.48;82.07
77041;BME280;65974;42.664;23.264;2024-01-15T02:57:30;93688.53;;;-3.51;81.96
77041;BME280;65974;42.664;23.264;2024-01-15T02:59:56;93687.94;;;-3.57;82.62
77041;BME280;65974;42.664;23.264;2024-01-15T03:02:23;93688.84;;;-3.53;82.25
77041;BME280;65974;42.664;23.264;2024-01-15T03:04:48;93681.66;;;-3.30;81.69
77041;BME280;65974;42.664;23.264;2024-01-15T03:07:14;93677.53;;;-3.40;83.30
77041;BME280;65974;42.664;23.264;2024-01-15T03:09:40;93679.19;;;-3.27;81.56
77041;BME280;65974;42.664;23.264;2024-01-15T03:12:06;93674.88;;;-3.23;81.71
77041;BME280;65974;42.664;23.264;2024-01-15T03:14:32;93677.97;;;-3.29;81.56
77041;BME280;65974;42.664;23.264;2024-01-15T03:16:57;93672.00;;;-3.38;82.05
77041;BME280;65974;42.664;23.264;2024-01-15T03:19:23;93671.25;;;-3.30;81.48
77041;BME280;65974;42.664;23.264;2024-01-15T03:21:48;93663.06;;;-3.03;81.01
77041;BME280;65974;42.664;23.264;2024-01-15T03:24:14;93659.84;;;-3.08;81.05
77041;BME280;65974;42.664;23.264;2024-01-15T03:26:40;93664.88;;;-3.03;81.42
77041;BME280;65974;42.664;23.264;2024-01-15T03:29:05;93652.03;;;-3.08;82.13
77041;BME280;65974;42.664;23.264;2024-01-15T03:31:32;93654.16;;;-3.02;82.02
77041;BME280;65974;42.664;23.264;2024-01-15T03:33:57;93654.47;;;-3.03;82.65
77041;BME280;65974;42.664;23.264;2024-01-15T03:36:23;93667.97;;;-3.10;82.04
77041;BME280;65974;42.664;23.264;2024-01-15T03:38:48;93655.72;;;-3.09;82.87
77041;BME280;65974;42.664;23.264;2024-01-15T03:41:14;93653.44;;;-3.11;82.14
77041;BME280;65974;42.664;23.264;2024-01-15T03:43:39;93649.31;;;-3.21;82.81
77041;BME280;65974;42.664;23.264;2024-01-15T03:46:05;93659.13;;;-3.18;82.44
77041;BME280;65974;42.664;23.264;2024-01-15T03:48:31;93662.63;;;-3.13;82.52
77041;BME280;65974;42.664;23.264;2024-01-15T03:50:56;93657.22;;;-3.08;82.17
77041;BME280;65974;42.664;23.264;2024-01-15T03:53:22;93647.09;;;-3.01;81.92
77041;BME280;65974;42.664;23.264;2024-01-15T03:55:47;93653.59;;;-3.16;82.26
77041;BME280;65974;42.664;23.264;2024-01-15T03:58:12;93657.22;;;-3.08;82.08
77041;BME280;65974;42.664;23.264;2024-01-15T04:00:40;93650.22;;;-3.17;82.85
77041;BME280;65974;42.664;23.264;2024-01-15T04:03:06;93639.53;;;-3.32;83.34
77041;BME280;65974;42.664;23.264;2024-01-15T04:05:31;93630.81;;;-3.36;83.63
77041;BME280;65974;42.664;23.264;2024-01-15T04:07:57;93627.91;;;-3.26;83.33
77041;BME280;65974;42.664;23.264;2024-01-15T04:10:22;93632.66;;;-3.28;83.47
77041;BME280;65974;42.664;23.264;2024-01-15T04:12:48;93632.66;;;-3.28;83.66
77041;BME280;65974;42.664;23.264;2024-01-15T04:15:13;93631.91;;;-3.37;83.73
77041;BME280;65974;42.664;23.264;2024-01-15T04:17:39;93627.59;;;-3.33;83.88
77041;BME280;65974;42.664;23.264;2024-01-15T04:20:05;93628.81;;;-3.31;83.97
77041;BME280;65974;42.664;23.264;2024-01-15T04:22:32;93641.84;;;-3.39;83.84
77041;BME280;65974;42.664;23.264;2024-01-15T04:24:59;93628.22;;;-3.45;84.14
77041;BME280;65974;42.664;23.264;2024-01-15T04:27:24;93637.44;;;-3.47;84.37
77041;BME280;65974;42.664;23.264;2024-01-15T04:29:50;93639.28;;;-3.65;84.81
77041;BME280;65974;42.664;23.264;2024-01-15T04:32:15;93646.47;;;-3.62;85.21
77041;BME280;65974;42.664;23.264;2024-01-15T04:34:41;93641.59;;;-3.63;85.43
77041;BME280;65974;42.664;23.264;2024-01-15T04:37:06;93637.63;;;-3.69;85.64
77041;BME280;65974;42.664;23.264;2024-01-15T04:39:32;93632.88;;;-3.93;86.44
77041;BME280;65974;42.664;23.264;2024-01-15T04:41:58;93639.75;;;-3.88;86.75
77041;BME280;65974;42.664;23.264;2024-01-15T04:44:24;93633.97;;;-3.85;86.21
77041;BME280;65974;42.664;23.264;2024-01-15T04:46:50;93642.22;;;-3.83;86.27
77041;BME280;65974;42.664;23.264;2024-01-15T04:49:17;93628.28;;;-3.87;86.50
77041;BME280;65974;42.664;23.264;2024-01-15T04:51:42;93629.69;;;-3.90;86.49
77041;BME280;65974;42.664;23.264;2024-01-15T04:54:08;93616.81;;;-3.86;86.70
77041;BME280;65974;42.664;23.264;2024-01-15T04:56:33;93611.63;;;-3.86;86.42
77041;BME280;65974;42.664;23.264;2024-01-15T04:58:59;93615.44;;;-3.92;87.49
77041;BME280;65974;42.664;23.264;2024-01-15T05:01:24;93605.34;;;-3.77;87.13
77041;BME280;65974;42.664;23.264;2024-01-15T05:03:51;93600.44;;;-3.78;87.01
77041;BME280;65974;42.664;23.264;2024-01-15T05:06:17;93611.28;;;-3.76;86.81
77041;BME280;65974;42.664;23.264;2024-01-15T05:08:42;93601.06;;;-3.73;86.80
77041;BME280;65974;42.664;23.264;2024-01-15T05:11:08;93593.41;;;-3.78;87.08
77041;BME280;65974;42.664;23.264;2024-01-15T05:13:33;93595.88;;;-3.81;87.22
77041;BME280;65974;42.664;23.264;2024-01-15T05:15:59;93590.47;;;-3.76;87.60
77041;BME280;65974;42.664;23.264;2024-01-15T05:18:24;93603.81;;;-3.86;87.27
77041;BME280;65974;42.664;23.264;2024-01-15T05:20:50;93620.66;;;-3.84;87.58
77041;BME280;65974;42.664;23.264;2024-01-15T05:23:15;93610.25;;;-3.84;87.21
77041;BME280;65974;42.664;23.264;2024-01-15T05:25:41;93618.81;;;-4.01;87.92
77041;BME280;65974;42.664;23.264;2024-01-15T05:28:07;93622.34;;;-3.97;88.16
77041;BME280;65974;42.664;23.264;2024-01-15T05:30:33;93613.91;;;-3.94;87.33
77041;BME280;65974;42.664;23.264;2024-01-15T05:32:58;93611.03;;;-4.09;88.20
77041;BME280;65974;42.664;23.264;2024-01-15T05:35:26;93598.47;;;-4.07;88.52
77041;BME280;65974;42.664;23.264;2024-01-15T05:37:52;93595.88;;;-3.99;88.41
77041;BME280;65974;42.664;23.264;2024-01-15T05:40:17;93610.72;;;-3.99;88.24
77041;BME280;65974;42.664;23.264;2024-01-15T05:42:43;93589.75;;;-3.94;88.81
77041;BME280;65974;42.664;23.264;2024-01-15T05:45:08;93594.19;;;-3.95;88.26
77041;BME280;65974;42.664;23.264;2024-01-15T05:47:34;93585.31;;;-3.94;88.53
77041;BME280;65974;42.664;23.264;2024-01-15T05:50:01;93587.91;;;-3.85;88.24
77041;BME280;65974;42.664;23.264;2024-01-15T05:52:27;93590.94;;;-3.83;88.88
77041;BME280;65974;42.664;23.264;2024-01-15T05:54:53;93576.44;;;-3.84;88.58
77041;BME280;65974;42.664;23.264;2024-01-15T05:57:18;93591.13;;;-3.97;88.27
77041;BME280;65974;42.664;23.264;2024-01-15T05:59:44;93586.72;;;-4.05;88.30
77041;BME280;65974;42.664;23.264;2024-01-15T06:02:10;93597.56;;;-3.94;88.22
77041;BME280;65974;42.664;23.264;2024-01-15T06:04:36;93591.28;;;-3.93;87.86
77041;BME280;65974;42.664;23.264;2024-01-15T06:07:02;93573.66;;;-3.87;87.73
77041;BME280;65974;42.664;23.264;2024-01-15T06:09:27;93572.72;;;-3.74;87.24
77041;BME280;65974;42.664;23.264;2024-01-15T06:11:53;93581.16;;;-3.77;87.46
77041;BME280;65974;42.664;23.264;2024-01-15T06:14:19;93578.25;;;-3.84;87.33
77041;BME280;65974;42.664;23.264;2024-01-15T06:16:44;93577.94;;;-3.74;87.63
77041;BME280;65974;42.664;23.264;2024-01-15T06:19:10;93579.13;;;-3.63;88.02
77041;BME280;65974;42.664;23.264;2024-01-15T06:21:35;93583.09;;;-3.57;87.04
77041;BME280;65974;42.664;23.264;2024-01-15T06:24:01;93579.13;;;-3.63;87.02
77041;BME280;65974;42.664;23.264;2024-01-15T06:26:26;93571.19;;;-3.58;86.98
77041;BME280;65974;42.664;23.264;2024-01-15T06:28:52;93576.03;;;-3.48;86.79
77041;BME280;65974;42.664;23.264;2024-01-15T06:31:18;93578.81;;;-3.53;87.11
77041;BME280;65974;42.664;23.264;2024-01-15T06:33:43;93591.34;;;-3.55;86.95
77041;BME280;65974;42.664;23.264;2024-01-15T06:36:13;93584.66;;;-3.56;87.18
77041;BME280;65974;42.664;23.264;2024-01-15T06:38:39;93586.00;;;-3.50;86.82
77041;BME280;65974;42.664;23.264;2024-01-15T06:41:04;93590.75;;;-3.52;87.03
77041;BME280;65974;42.664;23.264;2024-01-15T06:43:32;93592.09;;;-3.46;86.79
77041;BME280;65974;42.664;23.264;2024-01-15T06:45:57;93592.09;;;-3.46;86.75
77041;BME280;65974;42.664;23.264;2024-01-15T06:48:23;93590.06;;;-3.32;86.13
77041;BME280;65974;42.664;23.264;2024-01-15T06:50:48;93583.63;;;-3.18;85.75
77041;BME280;65974;42.664;23.264;2024-01-15T06:53:14;93582.03;;;-3.10;86.02
77041;BME280;65974;42.664;23.264;2024-01-15T06:55:39;93580.25;;;-2.89;87.06
77041;BME280;65974;42.664;23.264;2024-01-15T06:58:05;93584.72;;;-2.98;86.11
77041;BME280;65974;42.664;23.264;2024-01-15T07:00:31;93589.88;;;-2.81;85.23
77041;BME280;65974;42.664;23.264;2024-01-15T07:02:57;93601.50;;;-2.78;84.53
77041;BME280;65974;42.664;23.264;2024-01-15T07:05:23;93603.75;;;-2.68;84.77
77041;BME280;65974;42.664;23.264;2024-01-15T07:07:49;93611.84;;;-2.61;83.72
77041;BME280;65974;42.664;23.264;2024-01-15T07:10:15;93611.34;;;-2.55;83.42
77041;BME280;65974;42.664;23.264;2024-01-15T07:12:44;93603.25;;;-2.62;83.92
77041;BME280;65974;42.664;23.264;2024-01-15T07:15:11;93611.03;;;-2.53;83.93
77041;BME280;65974;42.664;23.264;2024-01-15T07:17:37;93605.97;;;-2.50;83.22
77041;BME280;65974;42.664;23.264;2024-01-15T07:20:06;93595.66;;;-2.46;83.48
77041;BME280;65974;42.664;23.264;2024-01-15T07:22:33;93586.28;;;-2.39;83.09
77041;BME280;65974;42.664;23.264;2024-01-15T07:24:59;93593.88;;;-2.33;83.50
77041;BME280;65974;42.664;23.264;2024-01-15T07:27:24;93593.56;;;-2.32;83.69
77041;BME280;65974;42.664;23.264;2024-01-15T07:29:50;93591.53;;;-2.26;83.00
77041;BME280;65974;42.664;23.264;2024-01-15T07:32:15;93582.31;;;-2.24;83.33
77041;BME280;65974;42.664;23.264;2024-01-15T07:34:42;93563.25;;;-2.16;83.19
77041;BME280;65974;42.664;23.264;2024-01-15T07:37:08;93584.38;;;-2.09;83.70
77041;BME280;65974;42.664;23.264;2024-01-15T07:39:33;93588.41;;;-1.99;82.87
77041;BME280;65974;42.664;23.264;2024-01-15T07:42:00;93584.28;;;-2.00;81.85
77041;BME280;65974;42.664;23.264;2024-01-15T07:44:26;93588.47;;;-1.87;82.13
77041;BME280;65974;42.664;23.264;2024-01-15T07:46:52;93596.53;;;-1.80;81.51
77041;BME280;65974;42.664;23.264;2024-01-15T07:49:17;93589.81;;;-1.81;81.08
77041;BME280;65974;42.664;23.264;2024-01-15T07:51:44;93597.78;;;-1.66;79.87
77041;BME280;65974;42.664;23.264;2024-01-15T07:54:09;93591.94;;;-1.63;79.65
77041;BME280;65974;42.664;23.264;2024-01-15T07:57:00;93583.59;;;-1.56;80.88
77041;BME280;65974;42.664;23.264;2024-01-15T07:59:26;93561.22;;;-1.45;80.46
77041;BME280;65974;42.664;23.264;2024-01-15T08:01:53;93566.97;;;-1.39;80.79
77041;BME280;65974;42.664;23.264;2024-01-15T08:04:19;93553.41;;;-1.33;80.10
77041;BME280;65974;42.664;23.264;2024-01-15T08:06:45;93558.28;;;-1.31;80.53
77041;BME280;65974;42.664;23.264;2024-01-15T08:09:12;93575.16;;;-1.29;79.84
77041;BME280;65974;42.664;23.264;2024-01-15T08:11:41;93586.47;;;-1.25;80.09
77041;BME280;65974;42.664;23.264;2024-01-15T08:14:07;93586.28;;;-1.20;79.77
77041;BME280;65974;42.664;23.264;2024-01-15T08:16:33;93577.78;;;-1.17;79.42
77041;BME280;65974;42.664;23.264;2024-01-15T08:18:59;93586.06;;;-1.15;78.51
77041;BME280;65974;42.664;23.264;2024-01-15T08:21:24;93593.25;;;-1.12;78.40
77041;BME280;65974;42.664;23.264;2024-01-15T08:23:50;93587.06;;;-1.07;78.85
77041;BME280;65974;42.664;23.264;2024-01-15T08:26:16;93597.63;;;-1.04;78.66
77041;BME280;65974;42.664;23.264;2024-01-15T08:28:41;93594.81;;;-0.99;77.68
77041;BME280;65974;42.664;23.264;2024-01-15T08:31:08;93599.34;;;-0.96;76.88
77041;BME280;65974;42.664;23.264;2024-01-15T08:33:34;93590.25;;;-0.90;76.31
77041;BME280;65974;42.664;23.264;2024-01-15T08:36:01;93586.84;;;-0.90;76.75
77041;BME280;65974;42.664;23.264;2024-01-15T08:38:26;93579.78;;;-0.77;76.49
77041;BME280;65974;42.664;23.264;2024-01-15T08:40:52;93574.56;;;-0.77;75.83
77041;BME280;65974;42.664;23.264;2024-01-15T08:43:21;93581.53;;;-0.82;75.55
77041;BME280;65974;42.664;23.264;2024-01-15T08:45:47;93569.53;;;-0.95;75.48
77041;BME280;65974;42.664;23.264;2024-01-15T08:48:13;93569.88;;;-0.96;74.96
77041;BME280;65974;42.664;23.264;2024-01-15T08:50:39;93567.69;;;-0.82;75.17
77041;BME280;65974;42.664;23.264;2024-01-15T08:53:04;93558.00;;;-0.82;74.84
77041;BME280;65974;42.664;23.264;2024-01-15T08:55:30;93558.44;;;-0.67;75.40
77041;BME280;65974;42.664;23.264;2024-01-15T08:57:56;93549.16;;;-0.53;76.10
77041;BME280;65974;42.664;23.264;2024-01-15T09:00:23;93542.53;;;-0.62;74.18
77041;BME280;65974;42.664;23.264;2024-01-15T09:02:48;93531.81;;;-0.45;74.22
77041;BME280;65974;42.664;23.264;2024-01-15T09:05:13;93538.34;;;-0.39;74.61
77041;BME280;65974;42.664;23.264;2024-01-15T09:07:39;93529.47;;;-0.23;75.41
77041;BME280;65974;42.664;23.264;2024-01-15T09:10:05;93516.94;;;-0.17;74.27
77041;BME280;65974;42.664;23.264;2024-01-15T09:12:32;93500.50;;;-0.02;73.31
77041;BME280;65974;42.664;23.264;2024-01-15T09:14:58;93494.94;;;0.27;73.00
77041;BME280;65974;42.664;23.264;2024-01-15T09:17:24;93491.50;;;0.54;71.66
77041;BME280;65974;42.664;23.264;2024-01-15T09:19:49;93499.03;;;0.71;70.67
77041;BME280;65974;42.664;23.264;2024-01-15T09:22:15;93486.59;;;1.00;69.78
77041;BME280;65974;42.664;23.264;2024-01-15T09:24:59;93484.16;;;1.26;67.57
77041;BME280;65974;42.664;23.264;2024-01-15T09:27:25;93479.81;;;1.49;67.11
77041;BME280;65974;42.664;23.264;2024-01-15T09:29:53;93484.16;;;1.26;66.16
77041;BME280;65974;42.664;23.264;2024-01-15T09:32:19;93464.78;;;1.30;66.02
77041;BME280;65974;42.664;23.264;2024-01-15T09:34:47;93471.25;;;1.17;66.92
77041;BME280;65974;42.664;23.264;2024-01-15T09:37:16;93460.06;;;1.20;67.03
77041;BME280;65974;42.664;23.264;2024-01-15T09:42:25;93450.78;;;1.23;67.47
77041;BME280;65974;42.664;23.264;2024-01-15T09:44:51;93450.00;;;1.22;67.56
77041;BME280;65974;42.664;23.264;2024-01-15T09:47:18;93431.72;;;1.45;65.87
77041;BME280;65974;42.664;23.264;2024-01-15T09:49:45;93422.31;;;1.79;65.55
77041;BME280;65974;42.664;23.264;2024-01-15T09:52:11;93403.50;;;2.18;65.69
77041;BME280;65974;42.664;23.264;2024-01-15T09:54:37;93418.59;;;2.21;64.36
77041;BME280;65974;42.664;23.264;2024-01-15T09:57:04;93399.03;;;2.19;64.55
77041;BME280;65974;42.664;23.264;2024-01-15T09:59:29;93404.47;;;2.78;63.29
77041;BME280;65974;42.664;23.264;2024-01-15T10:01:58;93391.75;;;2.80;62.90
77041;BME280;65974;42.664;23.264;2024-01-15T10:04:25;93418.78;;;2.81;61.20
77041;BME280;65974;42.664;23.264;2024-01-15T10:06:51;93410.75;;;2.70;61.46
77041;BME280;65974;42.664;23.264;2024-01-15T10:09:18;93397.59;;;2.70;60.32
77041;BME280;65974;42.664;23.264;2024-01-15T10:11:44;93409.34;;;2.54;60.86
77041;BME280;65974;42.664;23.264;2024-01-15T10:14:11;93398.81;;;2.54;60.69
77041;BME280;65974;42.664;23.264;2024-01-15T10:16:38;93383.81;;;2.54;60.36
77041;BME280;65974;42.664;23.264;2024-01-15T10:19:05;93389.22;;;2.87;60.39
77041;BME280;65974;42.664;23.264;2024-01-15T10:21:34;93376.09;;;3.17;58.70
77041;BME280;65974;42.664;23.264;2024-01-15T10:24:19;93378.75;;;2.91;58.05
77041;BME280;65974;42.664;23.264;2024-01-15T10:26:45;93366.53;;;3.05;58.81
77041;BME280;65974;42.664;23.264;2024-01-15T10:29:10;93347.63;;;2.96;59.57
77041;BME280;65974;42.664;23.264;2024-01-15T10:31:37;93367.03;;;2.85;59.70
77041;BME280;65974;42.664;23.264;2024-01-15T10:34:13;93353.50;;;2.86;59.87
77041;BME280;65974;42.664;23.264;2024-01-15T10:36:41;93351.66;;;3.17;59.82
77041;BME280;65974;42.664;23.264;2024-01-15T10:39:07;93359.72;;;3.01;60.20
77041;BME280;65974;42.664;23.264;2024-01-15T10:41:38;93362.34;;;3.01;59.93
77041;BME280;65974;42.664;23.264;2024-01-15T10:44:04;93358.16;;;2.96;59.58
77041;BME280;65974;42.664;23.264;2024-01-15T10:46:30;93358.75;;;3.12;59.66
77041;BME280;65974;42.664;23.264;2024-01-15T10:48:56;93349.53;;;3.26;59.48
77041;BME280;65974;42.664;23.264;2024-01-15T10:51:23;93339.41;;;2.72;60.57
77041;BME280;65974;42.664;23.264;2024-01-15T10:53:51;93335.53;;;2.92;60.85
77041;BME280;65974;42.664;23.264;2024-01-15T10:56:18;93338.91;;;2.89;60.42
77041;BME280;65974;42.664;23.264;2024-01-15T10:58:46;93345.13;;;2.77;60.58
77041;BME280;65974;42.664;23.264;2024-01-15T11:01:12;93338.09;;;2.59;61.49
77041;BME280;65974;42.664;23.264;2024-01-15T11:03:38;93326.94;;;2.65;60.99
77041;BME280;65974;42.664;23.264;2024-01-15T11:06:16;93315.63;;;2.91;60.75
77041;BME280;65974;42.664;23.264;2024-01-15T11:08:42;93325.13;;;2.99;60.44
77041;BME280;65974;42.664;23.264;2024-01-15T11:11:08;93320.66;;;3.03;60.66
77041;BME280;65974;42.664;23.264;2024-01-15T11:16:10;93315.47;;;3.06;60.28
77041;BME280;65974;42.664;23.264;2024-01-15T11:21:22;93309.34;;;2.99;60.31
77041;BME280;65974;42.664;23.264;2024-01-15T11:23:59;93306.31;;;2.97;60.89
77041;BME280;65974;42.664;23.264;2024-01-15T11:29:07;93312.66;;;2.92;61.56
77041;BME280;65974;42.664;23.264;2024-01-15T11:34:10;93313.31;;;2.86;60.90
77041;BME280;65974;42.664;23.264;2024-01-15T11:39:44;93296.84;;;2.89;60.83
77041;BME280;65974;42.664;23.264;2024-01-15T11:42:11;93295.22;;;2.81;61.78
77041;BME280;65974;42.664;23.264;2024-01-15T11:44:40;93299.75;;;2.84;61.36
77041;BME280;65974;42.664;23.264;2024-01-15T11:47:08;93295.00;;;2.93;61.39
77041;BME280;65974;42.664;23.264;2024-01-15T11:52:05;93288.63;;;2.94;61.36
77041;BME280;65974;42.664;23.264;2024-01-15T11:54:33;93282.25;;;2.95;61.56
77041;BME280;65974;42.664;23.264;2024-01-15T11:57:04;93268.41;;;2.98;61.76
77041;BME280;65974;42.664;23.264;2024-01-15T11:59:34;93281.22;;;3.03;61.83
77041;BME280;65974;42.664;23.264;2024-01-15T12:02:02;93277.88;;;3.06;61.90
77041;BME280;65974;42.664;23.264;2024-01-15T12:04:28;93282.69;;;3.00;62.83
77041;BME280;65974;42.664;23.264;2024-01-15T12:06:53;93256.75;;;2.99;61.56
77041;BME280;65974;42.664;23.264;2024-01-15T12:09:19;93246.69;;;3.04;62.41
77041;BME280;65974;42.664;23.264;2024-01-15T12:12:03;93252.28;;;3.03;62.84
77041;BME280;65974;42.664;23.264;2024-01-15T12:14:32;93266.97;;;3.04;62.82
77041;BME280;65974;42.664;23.264;2024-01-15T12:17:00;93247.78;;;3.03;62.66
77041;BME280;65974;42.664;23.264;2024-01-15T12:19:25;93251.91;;;3.01;61.88
77041;BME280;65974;42.664;23.264;2024-01-15T12:21:51;93257.63;;;3.06;61.97
77041;BME280;65974;42.664;23.264;2024-01-15T12:24:17;93254.72;;;3.15;63.81
77041;BME280;65974;42.664;23.264;2024-01-15T12:26:44;93249.50;;;3.22;62.94
77041;BME280;65974;42.664;23.264;2024-01-15T12:29:11;93236.28;;;3.15;61.82
77041;BME280;65974;42.664;23.264;2024-01-15T12:31:37;93256.19;;;3.12;62.18
77041;BME280;65974;42.664;23.264;2024-01-15T12:34:02;93241.94;;;3.17;61.70
77041;BME280;65974;42.664;23.264;2024-01-15T12:36:31;93244.47;;;3.06;62.50
77041;BME280;65974;42.664;23.264;2024-01-15T12:39:00;93236.31;;;3.19;62.52
77041;BME280;65974;42.664;23.264;2024-01-15T12:41:25;93233.69;;;3.19;61.99
77041;BME280;65974;42.664;23.264;2024-01-15T12:43:52;93223.59;;;3.24;62.26
77041;BME280;65974;42.664;23.264;2024-01-15T12:46:17;93215.75;;;3.28;62.14
77041;BME280;65974;42.664;23.264;2024-01-15T12:48:44;93222.50;;;3.29;63.32
77041;BME280;65974;42.664;23.264;2024-01-15T12:51:10;93227.84;;;3.32;62.40
77041;BME280;65974;42.664;23.264;2024-01-15T12:53:35;93226.41;;;3.42;62.88
77041;BME280;65974;42.664;23.264;2024-01-15T12:56:01;93221.13;;;3.38;63.03
77041;BME280;65974;42.664;23.264;2024-01-15T12:58:26;93226.00;;;3.40;62.23
77041;BME280;65974;42.664;23.264;2024-01-15T13:00:52;93206.16;;;3.46;63.24
77041;BME280;65974;42.664;23.264;2024-01-15T13:03:17;93204.56;;;3.38;62.91
77041;BME280;65974;42.664;23.264;2024-01-15T13:05:43;93214.69;;;3.32;62.51
77041;BME280;65974;42.664;23.264;2024-01-15T13:08:10;93210.53;;;3.35;62.85
77041;BME280;65974;42.664;23.264;2024-01-15T13:10:35;93197.69;;;3.26;62.73